Time;durP1;ratioP1;P1;durP2;ratioP2;P2;SDS_P1;SDS_P2;PMS_P1;PMS_P2;Temp;Humidity;BMP_temperature;BMP_pressure;BME280_temperature;BME280_humidity;BME280_pressure;Samples;Min_cycle;Max_cycle;Signal;HPM_P1;HPM_P2
2023/09/23 00:02:25;;;;;;;4.20;2.30;;;;;;;18.18;64.86;98790.02;105871;1253;72723;-23
2023/09/23 00:04:53;;;;;;;5.60;2.90;;;;;;;18.00;65.59;98789.64;105893;1253;61119;-23
2023/09/23 00:07:21;;;;;;;3.80;2.50;;;;;;;17.84;65.87;98784.59;105751;1254;61074;-23
2023/09/23 00:09:51;;;;;;;4.80;3.20;;;;;;;17.70;66.16;98784.69;105889;1253;71875;-23
2023/09/23 00:12:18;;;;;;;4.30;2.50;;;;;;;17.54;66.80;98781.70;105885;1254;74390;-23
2023/09/23 00:14:45;;;;;;;7.20;3.10;;;;;;;17.41;67.49;98779.35;105712;1253;72969;-24
2023/09/23 00:17:11;;;;;;;5.40;2.90;;;;;;;17.31;67.96;98780.80;105872;1253;61047;-24
2023/09/23 00:19:40;;;;;;;3.90;1.80;;;;;;;17.25;68.49;98780.44;105872;1253;61208;-23
2023/09/23 00:22:07;;;;;;;4.90;1.80;;;;;;;17.76;68.22;98783.58;105694;1253;72847;-24
2023/09/23 00:24:34;;;;;;;3.80;2.10;;;;;;;18.35;66.53;98783.81;105687;1260;74284;-23
2023/09/23 00:27:01;;;;;;;5.30;2.30;;;;;;;18.46;65.81;98781.53;105880;1253;72663;-23
2023/09/23 00:29:28;;;;;;;6.90;2.50;;;;;;;18.39;65.59;98785.81;105721;1253;61100;-23
2023/09/23 00:31:57;;;;;;;6.70;2.20;;;;;;;18.21;66.04;98782.98;105640;1257;61127;-24
2023/09/23 00:34:24;;;;;;;9.60;2.30;;;;;;;18.04;66.43;98783.79;105688;1253;73031;-23
2023/09/23 00:36:51;;;;;;;4.40;2.30;;;;;;;17.86;67.17;98780.17;105693;1253;74378;-23
2023/09/23 00:39:18;;;;;;;5.10;2.30;;;;;;;17.70;68.03;98781.34;105857;1253;72483;-23
2023/09/23 00:41:45;;;;;;;6.70;2.50;;;;;;;17.58;68.26;98785.71;105627;1253;61157;-23
2023/09/23 00:44:12;;;;;;;9.00;2.60;;;;;;;17.46;68.68;98786.33;105707;1259;61820;-23
2023/09/23 00:46:39;;;;;;;4.70;2.00;;;;;;;17.37;69.49;98784.84;105491;1253;72702;-23
2023/09/23 00:49:07;;;;;;;2.60;1.60;;;;;;;17.85;69.11;98781.04;105476;1253;74906;-23
2023/09/23 00:51:34;;;;;;;3.30;2.00;;;;;;;18.36;67.38;98777.19;105696;1253;71735;-23
2023/09/23 00:54:07;;;;;;;3.40;2.00;;;;;;;18.45;66.67;98776.52;105530;1253;61110;-23
2023/09/23 00:56:36;;;;;;;5.40;2.40;;;;;;;18.31;66.88;98774.84;105584;1257;61194;-23
2023/09/23 00:59:06;;;;;;;3.60;2.30;;;;;;;18.11;67.64;98776.14;105831;1256;72975;-23
2023/09/23 01:01:35;;;;;;;4.60;2.10;;;;;;;17.91;68.07;98772.91;105914;1253;73332;-23
2023/09/23 01:04:04;;;;;;;3.70;2.40;;;;;;;17.73;68.57;98771.82;105851;1253;72691;-23
2023/09/23 01:06:32;;;;;;;6.60;2.40;;;;;;;17.57;69.45;98774.44;105729;1253;61052;-23
2023/09/23 01:09:00;;;;;;;5.40;2.30;;;;;;;17.42;69.68;98774.35;105694;1257;61254;-23
2023/09/23 01:11:30;;;;;;;7.10;1.70;;;;;;;17.32;70.35;98775.80;105870;1257;71758;-23
2023/09/23 01:13:58;;;;;;;3.90;1.60;;;;;;;17.80;70.10;98775.98;105706;1253;74382;-23
2023/09/23 01:16:25;;;;;;;3.60;1.80;;;;;;;18.33;68.57;98775.14;105797;1253;71627;-23
2023/09/23 01:18:52;;;;;;;5.20;2.40;;;;;;;18.40;68.13;98775.48;105879;1253;61048;-23
2023/09/23 01:21:19;;;;;;;3.00;1.90;;;;;;;18.28;68.14;98780.23;105524;1253;61264;-23
2023/09/23 01:23:46;;;;;;;4.70;2.00;;;;;;;18.12;68.39;98780.04;105639;1253;73571;-23
2023/09/23 01:26:13;;;;;;;5.10;2.00;;;;;;;17.91;69.03;98780.36;105771;1257;74776;-23
2023/09/23 01:28:40;;;;;;;5.50;2.40;;;;;;;17.69;69.74;98782.88;105622;1260;73116;-23
2023/09/23 01:31:07;;;;;;;4.50;2.50;;;;;;;17.51;70.48;98782.84;105831;1253;61142;-23
2023/09/23 01:33:35;;;;;;;5.40;2.50;;;;;;;17.33;71.06;98785.92;105641;1253;61140;-23
2023/09/23 01:36:03;;;;;;;3.50;1.70;;;;;;;17.22;71.59;98783.67;105498;1253;72951;-23
2023/09/23 01:38:30;;;;;;;6.00;1.90;;;;;;;17.66;71.39;98785.64;105513;1253;74381;-24
2023/09/23 01:40:59;;;;;;;3.60;1.80;;;;;;;18.12;70.00;98786.50;105483;1253;70038;-22
2023/09/23 01:43:26;;;;;;;2.80;2.10;;;;;;;18.18;69.12;98789.65;105570;1253;61134;-22
2023/09/23 01:45:58;;;;;;;3.60;2.10;;;;;;;18.04;69.31;98786.77;105787;1254;61164;-22
2023/09/23 01:48:27;;;;;;;5.50;2.30;;;;;;;17.83;69.98;98788.23;105657;1257;72678;-22
2023/09/23 01:50:54;;;;;;;5.90;2.60;;;;;;;17.62;70.30;98792.91;105755;1253;74428;-22
2023/09/23 01:53:21;;;;;;;5.20;2.20;;;;;;;17.42;71.02;98790.47;105886;1253;73219;-22
2023/09/23 01:55:48;;;;;;;3.90;2.20;;;;;;;17.23;71.41;98791.55;105699;1253;62884;-22
2023/09/23 01:58:15;;;;;;;4.40;1.80;;;;;;;17.10;72.40;98797.10;105727;1258;61165;-22
2023/09/23 02:05:02;;;;;;;4.20;1.90;;;;;;;18.17;69.84;98793.48;105520;1257;75534;-22
2023/09/23 02:07:29;;;;;;;4.30;1.80;;;;;;;18.05;69.80;98792.30;105772;1253;72539;-22
2023/09/23 02:09:56;;;;;;;4.60;2.20;;;;;;;17.84;70.08;98792.77;105530;1252;61049;-22
2023/09/23 02:12:24;;;;;;;3.40;2.00;;;;;;;17.62;70.59;98788.90;105644;1257;61123;-22
2023/09/23 02:14:53;;;;;;;6.00;2.40;;;;;;;17.41;71.44;98791.99;105584;1254;73727;-23
2023/09/23 02:17:20;;;;;;;4.70;2.20;;;;;;;17.22;71.93;98793.84;105704;1258;74267;-23
2023/09/23 02:19:47;;;;;;;7.00;2.90;;;;;;;17.07;72.57;98793.56;105814;1257;72666;-23
2023/09/23 02:22:17;;;;;;;2.70;1.60;;;;;;;17.46;72.75;98791.61;105833;1253;61151;-24
2023/09/23 02:24:45;;;;;;;4.30;1.70;;;;;;;17.96;71.11;98796.77;105705;1254;61125;-23
2023/09/23 02:27:14;;;;;;;3.70;1.70;;;;;;;18.01;70.39;98794.59;105747;1253;74351;-23
2023/09/23 02:29:41;;;;;;;3.70;2.10;;;;;;;17.84;70.76;98795.49;105874;1255;74165;-23
2023/09/23 02:32:08;;;;;;;2.60;2.00;;;;;;;17.62;71.07;98797.68;105846;1257;73098;-23
2023/09/23 02:34:37;;;;;;;2.60;1.90;;;;;;;17.39;71.42;98794.88;105461;1253;61062;-23
2023/09/23 02:37:04;;;;;;;3.60;2.20;;;;;;;17.18;72.51;98796.48;105871;1257;61132;-22
2023/09/23 02:39:32;;;;;;;2.60;1.30;;;;;;;17.00;73.43;98796.63;105776;1253;73913;-23
2023/09/23 02:41:59;;;;;;;4.10;1.70;;;;;;;17.37;73.52;98793.83;105743;1253;74340;-22
2023/09/23 02:44:29;;;;;;;2.20;1.50;;;;;;;17.85;72.09;98795.62;105811;1253;72677;-23
2023/09/23 02:46:57;;;;;;;6.10;1.80;;;;;;;17.91;71.55;98794.02;105637;1253;61258;-22
2023/09/23 02:49:24;;;;;;;3.40;2.00;;;;;;;17.76;71.70;98792.96;105723;1258;61182;-23
2023/09/23 02:51:51;;;;;;;3.20;1.90;;;;;;;17.56;72.15;98791.42;105865;1253;74234;-23
2023/09/23 02:54:18;;;;;;;5.90;2.10;;;;;;;17.33;73.21;98787.47;105834;1254;74826;-23
2023/09/23 02:56:48;;;;;;;4.90;2.60;;;;;;;17.13;74.15;98782.67;105810;1253;72444;-23
2023/09/23 02:59:21;;;;;;;7.60;1.40;;;;;;;17.00;74.62;98780.32;105640;1253;61136;-22
2023/09/23 03:01:53;;;;;;;3.20;1.60;;;;;;;17.49;74.15;98781.59;105555;1257;61304;-23
2023/09/23 03:04:23;;;;;;;3.20;1.90;;;;;;;17.99;72.71;98778.55;105732;1253;73898;-23
2023/09/23 03:06:59;;;;;;;5.20;2.30;;;;;;;18.03;72.14;98783.77;105347;1260;74167;-23
2023/09/23 03:09:32;;;;;;;2.50;1.90;;;;;;;17.86;72.26;98783.73;105747;1253;73236;-22
2023/09/23 03:12:00;;;;;;;3.00;2.10;;;;;;;17.63;72.77;98784.58;105698;1253;61123;-23
2023/09/23 03:14:40;;;;;;;7.30;2.10;;;;;;;17.39;73.55;98782.73;105603;1259;61199;-23
2023/09/23 03:17:09;;;;;;;5.90;2.30;;;;;;;17.17;74.03;98774.76;105461;1258;73676;-23
2023/09/23 03:19:36;;;;;;;2.90;1.50;;;;;;;17.02;74.75;98775.55;105700;1259;74432;-23
2023/09/23 03:22:04;;;;;;;2.80;1.60;;;;;;;17.42;74.86;98776.27;105709;1253;72347;-23
2023/09/23 03:24:31;;;;;;;7.50;1.70;;;;;;;17.85;73.37;98778.04;105893;1253;61109;-23
2023/09/23 03:26:59;;;;;;;2.90;2.20;;;;;;;17.87;72.78;98775.81;105562;1256;61312;-23
2023/09/23 03:29:30;;;;;;;4.10;2.40;;;;;;;17.70;73.16;98773.60;105544;1258;72507;-23
2023/09/23 03:31:58;;;;;;;5.70;2.30;;;;;;;17.47;73.73;98765.49;105696;1258;74524;-22
2023/09/23 03:34:26;;;;;;;4.50;2.60;;;;;;;17.24;74.62;98760.89;105715;1259;72513;-22
2023/09/23 03:36:54;;;;;;;4.00;2.40;;;;;;;17.08;75.43;98762.05;105753;1253;61882;-22
2023/09/23 03:39:22;;;;;;;5.70;2.80;;;;;;;17.45;75.62;98760.27;105696;1258;61135;-23
2023/09/23 03:41:49;;;;;;;6.30;4.20;;;;;;;17.91;74.04;98764.81;105862;1253;73661;-23
2023/09/23 03:44:16;;;;;;;6.50;3.30;;;;;;;17.96;73.27;98768.30;105768;1253;74681;-22
2023/09/23 03:46:45;;;;;;;5.40;3.10;;;;;;;17.80;73.34;98766.96;105895;1253;72468;-23
2023/09/23 03:49:12;;;;;;;4.00;2.60;;;;;;;17.60;73.72;98767.90;105659;1253;61143;-23
2023/09/23 03:51:39;;;;;;;4.90;2.80;;;;;;;17.38;74.27;98767.80;105795;1253;61203;-22
2023/09/23 03:54:06;;;;;;;8.70;3.80;;;;;;;17.18;74.72;98771.31;105884;1253;73704;-23
2023/09/23 03:56:34;;;;;;;4.50;2.20;;;;;;;17.02;75.44;98771.46;105832;1254;74348;-23
2023/09/23 03:59:05;;;;;;;3.50;2.10;;;;;;;17.45;75.66;98777.75;105799;1258;72502;-23
2023/09/23 04:01:33;;;;;;;5.40;3.60;;;;;;;17.97;73.96;98773.69;105679;1253;61745;-22
2023/09/23 04:04:01;;;;;;;8.80;3.80;;;;;;;18.02;73.33;98778.39;105682;1257;61105;-23
2023/09/23 04:06:30;;;;;;;7.00;3.70;;;;;;;17.85;73.34;98783.60;105767;1253;73614;-23
2023/09/23 04:08:58;;;;;;;7.90;3.50;;;;;;;17.63;74.07;98786.73;105663;1253;74268;-23
2023/09/23 04:11:26;;;;;;;6.20;4.50;;;;;;;17.40;74.77;98791.27;105831;1253;72503;-23
2023/09/23 04:13:53;;;;;;;7.40;5.30;;;;;;;17.20;75.36;98792.63;105810;1257;61166;-23
2023/09/23 04:16:20;;;;;;;8.40;3.30;;;;;;;17.07;76.04;98802.96;105782;1252;61076;-23
2023/09/23 04:18:49;;;;;;;9.70;3.50;;;;;;;17.53;75.94;98806.47;105554;1253;73926;-23
2023/09/23 04:21:17;;;;;;;9.30;4.40;;;;;;;18.08;74.20;98806.83;105370;1253;72124;-23
2023/09/23 04:23:44;;;;;;;5.80;3.70;;;;;;;18.18;73.38;98805.47;105636;1253;72391;-23
2023/09/23 04:26:12;;;;;;;9.40;3.90;;;;;;;18.09;73.32;98808.83;105861;1253;61122;-23
2023/09/23 04:28:41;;;;;;;8.70;3.20;;;;;;;17.93;73.77;98811.68;105807;1253;61123;-23
2023/09/23 04:31:08;;;;;;;4.10;2.70;;;;;;;17.80;73.86;98816.50;105744;1253;72924;-23
2023/09/23 04:33:36;;;;;;;7.70;2.40;;;;;;;17.70;74.17;98816.20;105799;1253;74405;-23
2023/09/23 04:36:06;;;;;;;3.10;1.90;;;;;;;17.64;74.92;98819.20;105701;1253;73076;-23
2023/09/23 04:38:33;;;;;;;3.90;1.80;;;;;;;18.19;74.42;98819.21;105630;1253;61099;-23
2023/09/23 04:41:00;;;;;;;3.00;1.90;;;;;;;18.81;72.23;98820.78;105885;1257;61117;-23
2023/09/23 04:43:30;;;;;;;4.20;1.90;;;;;;;19.01;71.14;98823.27;105848;1253;73788;-23
2023/09/23 04:45:57;;;;;;;15.90;3.70;;;;;;;18.96;70.65;98831.70;105642;1254;74342;-23
2023/09/23 04:48:25;;;;;;;3.00;2.10;;;;;;;18.82;70.78;98837.31;105472;1253;72430;-23
2023/09/23 04:50:55;;;;;;;3.90;2.30;;;;;;;18.66;71.28;98844.36;105519;1253;61109;-23
2023/09/23 04:53:22;;;;;;;3.60;2.30;;;;;;;18.46;71.89;98843.01;105627;1254;61103;-23
2023/09/23 04:55:49;;;;;;;5.30;2.30;;;;;;;18.31;72.33;98838.82;105707;1253;73791;-23
2023/09/23 04:58:17;;;;;;;4.40;1.70;;;;;;;18.22;72.76;98838.45;105877;1256;74352;-22
2023/09/23 05:00:44;;;;;;;4.60;1.80;;;;;;;18.72;72.68;98839.73;105770;1253;72775;-24
2023/09/23 05:03:11;;;;;;;3.60;1.70;;;;;;;19.33;70.62;98840.14;105295;1253;61060;-23
2023/09/23 05:05:38;;;;;;;3.70;1.80;;;;;;;19.51;69.44;98843.57;105511;1255;61148;-23
2023/09/23 05:08:09;;;;;;;4.50;2.30;;;;;;;19.49;69.28;98851.23;105672;1254;73829;-23
2023/09/23 05:10:39;;;;;;;4.20;2.20;;;;;;;19.32;69.38;98850.61;105783;1253;75783;-23
2023/09/23 05:13:08;;;;;;;3.30;2.30;;;;;;;19.11;69.92;98854.65;105482;1258;71838;-23
2023/09/23 05:15:35;;;;;;;5.10;2.20;;;;;;;18.96;70.52;98852.11;105842;1253;61430;-23
2023/09/23 05:18:03;;;;;;;6.70;2.10;;;;;;;18.84;71.22;98859.13;105747;1258;61252;-23
2023/09/23 05:20:31;;;;;;;3.30;2.30;;;;;;;18.73;71.52;98859.15;105819;1258;73818;-23
2023/09/23 05:23:00;;;;;;;6.60;1.60;;;;;;;18.64;72.41;98859.55;105784;1255;74093;-23
2023/09/23 05:25:28;;;;;;;5.30;2.10;;;;;;;19.11;71.67;98858.05;105655;1253;73018;-23
2023/09/23 05:27:56;;;;;;;2.70;2.10;;;;;;;19.47;70.57;98859.73;105725;1253;61094;-23
2023/09/23 05:30:26;;;;;;;2.60;2.10;;;;;;;19.49;69.88;98862.11;105746;1258;61168;-23
2023/09/23 05:32:53;;;;;;;4.30;2.10;;;;;;;19.35;69.97;98859.45;105769;1253;74256;-23
2023/09/23 05:35:20;;;;;;;4.70;2.10;;;;;;;19.15;70.42;98867.61;105758;1257;74313;-23
2023/09/23 05:37:47;;;;;;;5.70;2.10;;;;;;;18.96;71.06;98871.59;105799;1254;72328;-23
2023/09/23 05:42:45;;;;;;;3.80;1.90;;;;;;;18.70;72.59;98876.59;105773;1259;61884;-23
2023/09/23 05:45:12;;;;;;;2.90;1.80;;;;;;;19.17;72.32;98877.86;105701;1253;73807;-23
2023/09/23 05:47:41;;;;;;;4.70;2.10;;;;;;;19.63;70.67;98880.83;105874;1259;74303;-23
2023/09/23 05:50:11;;;;;;;3.70;2.20;;;;;;;19.67;70.23;98883.02;105691;1253;73210;-23
2023/09/23 05:52:39;;;;;;;4.00;2.20;;;;;;;19.50;70.56;98880.09;105644;1259;61058;-23
2023/09/23 05:55:07;;;;;;;4.40;2.30;;;;;;;19.31;71.06;98883.39;105887;1259;61143;-23
2023/09/23 05:57:38;;;;;;;5.20;2.70;;;;;;;19.13;71.65;98884.71;105730;1253;73630;-23
2023/09/23 06:00:15;;;;;;;8.80;2.40;;;;;;;18.97;72.42;98884.80;105802;1253;74217;-23
2023/09/23 06:02:44;;;;;;;3.30;1.80;;;;;;;18.94;73.12;98874.64;105791;1258;71510;-23
2023/09/23 06:05:16;;;;;;;7.30;2.00;;;;;;;19.52;72.17;98871.90;105603;1254;61156;-23
2023/09/23 06:07:56;;;;;;;3.50;2.00;;;;;;;20.03;70.37;98874.14;105732;1258;61114;-23
2023/09/23 06:10:23;;;;;;;6.70;2.50;;;;;;;20.10;69.72;98878.46;105837;1257;73847;-23
2023/09/23 06:12:50;;;;;;;4.00;2.30;;;;;;;20.00;69.71;98875.09;105888;1258;74245;-23
2023/09/23 06:15:17;;;;;;;3.10;2.40;;;;;;;19.91;70.02;98873.58;105823;1257;72614;-23
2023/09/23 06:17:44;;;;;;;4.30;2.90;;;;;;;19.80;70.55;98874.70;105716;1253;61118;-23
2023/09/23 06:20:11;;;;;;;4.90;2.70;;;;;;;19.74;70.99;98877.48;105701;1257;61102;-23
2023/09/23 06:22:38;;;;;;;4.50;2.00;;;;;;;19.65;71.68;98881.26;105581;1256;73633;-23
2023/09/23 06:25:06;;;;;;;5.50;2.10;;;;;;;20.17;70.73;98885.64;105563;1259;74280;-23
2023/09/23 06:27:33;;;;;;;3.40;2.00;;;;;;;20.59;68.90;98889.29;105839;1257;72622;-23
2023/09/23 06:30:00;;;;;;;4.50;2.20;;;;;;;20.68;68.14;98889.80;105897;1253;61132;-23
2023/09/23 06:32:28;;;;;;;4.30;2.50;;;;;;;20.60;68.44;98892.71;105869;1260;61155;-24
2023/09/23 06:34:56;;;;;;;7.80;2.40;;;;;;;20.51;68.79;98895.95;105863;1253;73899;-23
2023/09/23 06:37:23;;;;;;;4.90;2.80;;;;;;;20.42;69.23;98896.91;105691;1253;74405;-23
2023/09/23 06:39:50;;;;;;;7.30;2.70;;;;;;;20.25;69.97;98892.32;105622;1253;72506;-22
2023/09/23 06:42:17;;;;;;;7.40;2.60;;;;;;;20.25;70.10;98891.27;105757;1253;61077;-22
2023/09/23 06:44:45;;;;;;;4.80;2.10;;;;;;;20.29;70.26;98891.78;105810;1259;61178;-23
2023/09/23 06:47:12;;;;;;;5.60;2.00;;;;;;;20.87;68.82;98892.18;105508;1253;73837;-23
2023/09/23 06:49:39;;;;;;;5.00;2.10;;;;;;;21.24;67.14;98895.58;105630;1258;74391;-23
2023/09/23 06:52:06;;;;;;;8.10;2.60;;;;;;;21.35;66.61;98893.85;105736;1255;72613;-23
2023/09/23 06:54:33;;;;;;;4.40;2.20;;;;;;;21.34;66.73;98894.66;105866;1253;61111;-23
2023/09/23 06:57:00;;;;;;;5.10;2.40;;;;;;;21.32;66.65;98897.06;105513;1259;61234;-23
2023/09/23 06:59:27;;;;;;;5.20;2.60;;;;;;;21.28;66.95;98895.02;105471;1253;74525;-23
2023/09/23 07:01:54;;;;;;;4.20;2.50;;;;;;;21.30;67.14;98898.20;105723;1259;74321;-23
2023/09/23 07:04:21;;;;;;;5.20;2.70;;;;;;;21.35;66.97;98893.00;105814;1253;73216;-22
2023/09/23 07:06:48;;;;;;;4.20;2.50;;;;;;;21.37;66.93;98899.52;105570;1254;61103;-23
2023/09/23 07:09:15;;;;;;;4.80;3.20;;;;;;;21.44;66.91;98896.56;105803;1257;61100;-23
2023/09/23 07:11:42;;;;;;;5.70;2.80;;;;;;;21.52;66.17;98894.92;105918;1254;73733;-23
2023/09/23 07:14:09;;;;;;;3.60;2.70;;;;;;;21.54;66.19;98895.61;105752;1253;74333;-23
2023/09/23 07:16:36;;;;;;;6.70;1.90;;;;;;;21.54;66.41;98894.56;105749;1257;72433;-22
2023/09/23 07:19:03;;;;;;;4.60;2.30;;;;;;;22.09;65.42;98894.11;105796;1253;61149;-22
2023/09/23 07:21:30;;;;;;;12.30;2.90;;;;;;;22.70;63.76;98900.27;105700;1259;61105;-23
2023/09/23 07:23:58;;;;;;;3.90;2.50;;;;;;;22.98;62.48;98905.12;105662;1253;73817;-23
2023/09/23 07:26:25;;;;;;;3.20;2.30;;;;;;;23.04;61.88;98902.41;105610;1253;74381;-23
2023/09/23 07:28:52;;;;;;;3.70;1.70;;;;;;;23.01;61.72;98908.38;105618;1253;72737;-22
2023/09/23 07:31:19;;;;;;;7.90;2.80;;;;;;;22.77;62.11;98909.89;105671;1254;61148;-23
2023/09/23 07:33:46;;;;;;;6.30;2.40;;;;;;;22.79;62.29;98915.80;105830;1259;61097;-23
2023/09/23 07:36:14;;;;;;;5.70;2.60;;;;;;;22.88;62.40;98917.13;105758;1257;72739;-23
2023/09/23 07:38:41;;;;;;;5.20;2.60;;;;;;;23.01;62.10;98921.33;105896;1256;74290;-23
2023/09/23 07:41:08;;;;;;;7.30;2.70;;;;;;;22.95;61.69;98914.69;105786;1254;71357;-23
2023/09/23 07:43:38;;;;;;;4.80;2.40;;;;;;;22.97;61.94;98905.12;105857;1258;61048;-23
2023/09/23 07:46:05;;;;;;;6.80;2.70;;;;;;;23.05;61.92;98903.98;105850;1257;61168;-23
2023/09/23 07:48:32;;;;;;;6.80;2.50;;;;;;;23.26;61.45;98901.73;105835;1253;73947;-22
2023/09/23 07:50:59;;;;;;;4.30;2.50;;;;;;;23.41;60.86;98902.17;105557;1257;74466;-22
2023/09/23 07:53:26;;;;;;;5.20;2.30;;;;;;;23.43;60.64;98905.69;105798;1256;72633;-22
2023/09/23 07:55:53;;;;;;;14.60;2.80;;;;;;;23.55;60.36;98908.56;105614;1255;61151;-23
2023/09/23 07:58:20;;;;;;;8.50;2.80;;;;;;;23.64;59.98;98896.29;105781;1254;61109;-22
2023/09/23 08:00:47;;;;;;;6.60;2.40;;;;;;;23.66;59.92;98893.21;105770;1253;73695;-22
2023/09/23 08:03:14;;;;;;;6.40;2.20;;;;;;;23.60;59.99;98897.95;105688;1257;74331;-22
2023/09/23 08:05:42;;;;;;;7.40;3.10;;;;;;;23.63;59.61;98901.02;105662;1253;72416;-23
2023/09/23 08:08:10;;;;;;;4.10;2.40;;;;;;;23.56;59.90;98907.42;105791;1256;61439;-23
2023/09/23 08:10:37;;;;;;;4.90;2.50;;;;;;;23.52;59.92;98912.10;105760;1254;61051;-22
2023/09/23 08:13:04;;;;;;;5.60;2.50;;;;;;;23.44;60.18;98909.52;105784;1253;73810;-22
2023/09/23 08:15:31;;;;;;;4.50;2.60;;;;;;;23.37;60.41;98909.36;105833;1255;74309;-22
2023/09/23 08:17:58;;;;;;;10.30;2.80;;;;;;;23.36;60.48;98910.59;105596;1258;72690;-23
2023/09/23 08:20:25;;;;;;;6.00;2.50;;;;;;;23.43;60.34;98910.34;105731;1254;61074;-23
2023/09/23 08:22:53;;;;;;;4.30;2.40;;;;;;;23.49;60.16;98911.71;105844;1256;62548;-23
2023/09/23 08:25:25;;;;;;;6.70;2.60;;;;;;;23.50;60.29;98913.79;105872;1258;73825;-24
2023/09/23 08:27:53;;;;;;;5.50;2.70;;;;;;;23.48;60.48;98914.29;105779;1255;74376;-23
2023/09/23 08:30:21;;;;;;;5.80;2.30;;;;;;;23.55;60.53;98913.40;105644;1259;72546;-23
2023/09/23 08:32:49;;;;;;;3.70;2.20;;;;;;;23.68;60.01;98912.63;105753;1255;61206;-22
2023/09/23 08:35:16;;;;;;;7.60;2.50;;;;;;;23.86;59.69;98916.98;105880;1253;61036;-23
2023/09/23 08:37:45;;;;;;;6.00;2.70;;;;;;;24.09;59.27;98916.98;105837;1256;74260;-23
2023/09/23 08:40:13;;;;;;;5.20;2.20;;;;;;;24.31;58.80;98918.02;105871;1259;74601;-23
2023/09/23 08:42:40;;;;;;;9.30;2.40;;;;;;;24.57;58.11;98911.36;105769;1252;72801;-22
2023/09/23 08:45:10;;;;;;;5.30;2.30;;;;;;;24.78;57.13;98911.40;105765;1256;61079;-22
2023/09/23 08:47:37;;;;;;;6.10;2.40;;;;;;;24.91;56.49;98908.97;105687;1257;61053;-23
2023/09/23 08:50:06;;;;;;;4.20;2.50;;;;;;;25.03;56.22;98901.79;105695;1261;73876;-23
2023/09/23 08:52:34;;;;;;;8.40;2.80;;;;;;;25.19;55.75;98901.06;105739;1261;74071;-23
2023/09/23 08:55:03;;;;;;;4.70;2.70;;;;;;;25.31;54.96;98901.39;105863;1254;72671;-23
2023/09/23 08:57:31;;;;;;;4.60;2.50;;;;;;;25.40;54.51;98904.39;105863;1258;61183;-22
2023/09/23 08:59:58;;;;;;;2.60;2.20;;;;;;;25.54;54.30;98897.91;105791;1253;61147;-23
2023/09/23 09:02:25;;;;;;;5.10;2.50;;;;;;;25.74;53.60;98896.73;105581;1258;73953;-23
2023/09/23 09:04:57;;;;;;;4.80;2.20;;;;;;;25.93;53.11;98894.42;105524;1253;72986;-23
2023/09/23 09:07:25;;;;;;;4.80;2.00;;;;;;;26.16;52.31;98895.98;105698;1256;72515;-23
2023/09/23 09:09:52;;;;;;;6.00;2.40;;;;;;;26.35;51.70;98899.48;105701;1258;61147;-23
2023/09/23 09:12:20;;;;;;;8.40;2.60;;;;;;;26.39;51.44;98900.73;105680;1266;61146;-23
2023/09/23 09:14:51;;;;;;;5.40;2.50;;;;;;;26.44;51.58;98906.16;105845;1257;73907;-23
2023/09/23 09:17:19;;;;;;;5.40;2.50;;;;;;;26.60;51.18;98911.72;105753;1258;74367;-23
2023/09/23 09:19:47;;;;;;;4.70;2.30;;;;;;;26.52;51.58;98914.42;105713;1257;72534;-23
2023/09/23 09:22:17;;;;;;;5.30;2.30;;;;;;;26.87;50.71;98909.52;105480;1255;61146;-23
2023/09/23 09:24:46;;;;;;;13.50;2.90;;;;;;;27.27;49.50;98910.91;105633;1266;61174;-23
2023/09/23 09:27:14;;;;;;;6.70;2.40;;;;;;;27.67;48.65;98911.27;105844;1257;74692;-23
2023/09/23 09:29:41;;;;;;;6.00;2.50;;;;;;;27.59;48.07;98916.10;105661;1259;74049;-23
2023/09/23 09:32:09;;;;;;;4.80;2.40;;;;;;;27.07;49.58;98918.42;105537;1261;72729;-23
2023/09/23 09:34:46;;;;;;;5.20;2.60;;;;;;;27.01;49.99;98916.27;105639;1252;61061;-23
2023/09/23 09:37:14;;;;;;;5.70;2.20;;;;;;;27.00;50.33;98917.20;105678;1266;61099;-23
2023/09/23 09:39:54;;;;;;;12.20;3.00;;;;;;;27.20;49.85;98916.87;105753;1257;73709;-23
2023/09/23 09:42:27;;;;;;;5.40;3.00;;;;;;;27.46;49.06;98915.01;105729;1257;74305;-23
2023/09/23 09:44:55;;;;;;;11.00;3.20;;;;;;;27.75;48.39;98916.16;105497;1255;72295;-23
2023/09/23 09:47:22;;;;;;;8.00;2.20;;;;;;;27.78;48.34;98922.58;105694;1254;61183;-23
2023/09/23 09:49:54;;;;;;;7.60;2.70;;;;;;;27.12;49.12;98921.84;105802;1260;61250;-23
2023/09/23 09:52:22;;;;;;;4.00;2.20;;;;;;;26.86;49.65;98928.41;105709;1255;73809;-23
2023/09/23 09:54:52;;;;;;;4.20;2.50;;;;;;;27.06;49.48;98924.82;105633;1259;74396;-23
2023/09/23 09:57:22;;;;;;;7.20;3.20;;;;;;;27.46;49.05;98923.61;105606;1257;72658;-23
2023/09/23 09:59:51;;;;;;;9.30;2.40;;;;;;;27.60;48.41;98925.14;105690;1254;61137;-23
2023/09/23 10:02:18;;;;;;;9.20;2.90;;;;;;;27.91;47.48;98930.55;105700;1259;61108;-23
2023/09/23 10:04:46;;;;;;;4.30;2.50;;;;;;;28.45;46.44;98932.46;105742;1259;73973;-23
2023/09/23 10:07:14;;;;;;;4.80;2.50;;;;;;;28.81;45.38;98924.36;105723;1253;74153;-23
2023/09/23 10:09:55;;;;;;;5.70;2.20;;;;;;;29.07;44.70;98922.38;105718;1257;72448;-23
2023/09/23 10:12:25;;;;;;;5.40;2.40;;;;;;;29.28;44.36;98916.55;103404;1257;3083256;-23
2023/09/23 10:14:56;;;;;;;6.50;2.90;;;;;;;28.60;44.71;98919.44;105864;1256;61154;-23
2023/09/23 10:17:30;;;;;;;12.10;3.10;;;;;;;27.92;46.20;98916.70;105683;1260;73822;-23
2023/09/23 10:19:57;;;;;;;9.90;2.80;;;;;;;28.34;45.77;98920.90;105633;1260;74343;-23
2023/09/23 10:22:28;;;;;;;9.30;2.90;;;;;;;28.98;44.38;98919.69;105593;1253;72775;-23
2023/09/23 10:25:06;;;;;;;9.60;2.80;;;;;;;28.95;44.14;98916.98;105460;1257;61145;-23
2023/09/23 10:27:36;;;;;;;4.00;2.10;;;;;;;28.91;43.82;98917.17;105699;1254;61110;-23
2023/09/23 10:30:04;;;;;;;11.80;3.20;;;;;;;27.99;45.63;98910.99;105689;1259;73716;-23
2023/09/23 10:32:32;;;;;;;9.80;2.70;;;;;;;28.12;46.39;98913.92;105599;1254;72415;-23
2023/09/23 10:35:00;;;;;;;11.60;2.90;;;;;;;28.79;44.85;98908.73;105615;1257;73170;-23
2023/09/23 10:37:35;;;;;;;9.40;2.50;;;;;;;29.36;43.76;98907.09;105701;1255;61556;-23
2023/09/23 10:40:12;;;;;;;8.20;2.40;;;;;;;29.80;43.15;98902.52;105643;1257;61080;-23
2023/09/23 10:42:41;;;;;;;5.40;2.60;;;;;;;30.13;42.37;98903.05;105733;1261;75143;-23
2023/09/23 10:45:09;;;;;;;9.60;2.60;;;;;;;30.18;42.09;98896.70;105642;1259;76130;-23
2023/09/23 10:47:36;;;;;;;6.80;2.40;;;;;;;30.09;42.41;98889.66;105489;1259;72392;-23
2023/09/23 10:50:05;;;;;;;6.00;2.40;;;;;;;30.39;41.37;98887.55;105782;1257;61140;-23
2023/09/23 10:52:33;;;;;;;5.40;2.70;;;;;;;30.53;40.91;98887.90;105689;1252;61152;-23
2023/09/23 10:55:00;;;;;;;10.20;2.60;;;;;;;30.10;41.33;98883.09;105745;1256;65104;-23
2023/09/23 10:57:27;;;;;;;7.00;2.70;;;;;;;29.56;42.27;98886.16;105725;1260;74401;-23
2023/09/23 10:59:54;;;;;;;10.00;3.00;;;;;;;29.33;42.77;98881.05;105823;1259;72737;-24
2023/09/23 11:02:25;;;;;;;8.70;2.90;;;;;;;28.89;43.98;98880.51;105572;1257;61171;-23
2023/09/23 11:04:54;;;;;;;5.50;2.50;;;;;;;28.75;44.77;98877.86;105597;1254;61326;-23
2023/09/23 11:07:21;;;;;;;9.30;2.80;;;;;;;28.62;44.55;98872.41;105632;1252;74399;-23
2023/09/23 11:09:48;;;;;;;8.70;2.20;;;;;;;28.33;45.44;98869.17;105811;1258;76042;-24
2023/09/23 11:12:17;;;;;;;9.70;3.30;;;;;;;28.11;46.18;98865.26;105674;1260;73925;-23
2023/09/23 11:14:50;;;;;;;7.20;2.90;;;;;;;28.72;45.62;98860.65;105669;1254;61039;-23
2023/09/23 11:17:29;;;;;;;6.50;2.60;;;;;;;29.39;44.51;98857.23;105679;1260;61049;-23
2023/09/23 11:19:57;;;;;;;6.20;2.20;;;;;;;29.85;43.19;98856.14;105712;1255;73809;-24
2023/09/23 11:22:29;;;;;;;6.20;2.40;;;;;;;30.11;42.78;98849.73;105654;1261;74223;-23
2023/09/23 11:24:57;;;;;;;5.90;2.80;;;;;;;30.46;41.82;98837.52;105663;1257;64011;-23
2023/09/23 11:27:25;;;;;;;5.10;2.30;;;;;;;30.66;41.49;98835.70;105597;1253;61089;-24
2023/09/23 11:29:52;;;;;;;7.10;2.50;;;;;;;30.72;41.18;98837.48;105581;1259;61144;-23
2023/09/23 11:32:21;;;;;;;6.00;2.30;;;;;;;30.81;40.84;98847.36;105501;1254;67054;-24
2023/09/23 11:34:50;;;;;;;7.60;2.60;;;;;;;30.99;40.51;98842.73;105719;1259;67649;-23
2023/09/23 11:37:17;;;;;;;8.80;2.40;;;;;;;31.01;40.44;98842.78;105698;1254;65876;-24